createdAt,value
2022-09-16T00:01:26.387Z,21.86
2022-09-16T00:03:57.637Z,21.90
2022-09-16T00:06:30.829Z,21.65
2022-09-16T00:09:03.786Z,21.66
2022-09-16T00:11:34.829Z,21.81
2022-09-16T00:14:03.326Z,21.75
2022-09-16T00:16:30.627Z,21.42
2022-09-16T00:18:59.992Z,21.75
2022-09-16T00:21:28.405Z,21.67
2022-09-16T00:23:56.442Z,21.77
2022-09-16T00:26:24.641Z,21.73
2022-09-16T00:28:52.219Z,21.59
2022-09-16T00:31:19.879Z,21.68
2022-09-16T00:33:47.816Z,21.61
2022-09-16T00:36:20.813Z,21.49
2022-09-16T00:38:55.099Z,21.44
2022-09-16T00:41:25.962Z,21.44
2022-09-16T00:43:59.068Z,21.38
2022-09-16T00:46:46.913Z,21.48
2022-09-16T00:49:25.943Z,21.50
2022-09-16T00:51:58.835Z,21.41
2022-09-16T00:54:27.624Z,21.38
2022-09-16T00:56:59.558Z,21.34
2022-09-16T00:59:32.212Z,21.38
2022-09-16T01:02:07.167Z,21.29
2022-09-16T01:04:43.430Z,21.01
2022-09-16T01:07:11.872Z,20.97
2022-09-16T01:09:40.175Z,21.15
2022-09-16T01:12:08.310Z,20.95
2022-09-16T01:14:54.161Z,21.22
2022-09-16T01:17:21.363Z,21.14
2022-09-16T01:20:12.237Z,21.17
2022-09-16T01:22:46.261Z,21.18
2022-09-16T01:25:55.678Z,21.18
2022-09-16T01:29:05.193Z,21.03
2022-09-16T01:31:54.137Z,21.11
2022-09-16T01:34:42.438Z,21.16
2022-09-16T01:37:23.846Z,21.12
2022-09-16T01:40:17.517Z,21.12
2022-09-16T01:43:18.154Z,21.17
2022-09-16T01:45:55.841Z,21.12
2022-09-16T01:48:58.346Z,21.18
2022-09-16T01:51:54.313Z,21.05
2022-09-16T01:54:38.843Z,20.90
2022-09-16T01:57:14.210Z,21.14
2022-09-16T01:59:48.907Z,20.87
2022-09-16T02:02:29.605Z,21.06
2022-09-16T02:05:01.582Z,21.09
2022-09-16T02:07:34.606Z,21.13
2022-09-16T02:10:18.372Z,21.08
2022-09-16T02:12:49.415Z,21.03
2022-09-16T02:15:22.531Z,21.06
2022-09-16T02:17:56.740Z,21.05
2022-09-16T02:20:30.865Z,20.95
2022-09-16T02:23:07.122Z,21.20
2022-09-16T02:25:39.379Z,21.06
2022-09-16T02:28:13.195Z,21.21
2022-09-16T02:30:49.131Z,20.90
2022-09-16T02:33:18.460Z,21.23
2022-09-16T02:35:51.663Z,21.08
2022-09-16T02:38:27.507Z,21.25
2022-09-16T02:40:57.883Z,21.28
2022-09-16T02:43:26.668Z,21.20
2022-09-16T02:46:32.499Z,21.19
2022-09-16T02:49:27.187Z,21.24
2022-09-16T02:52:13.534Z,21.03
2022-09-16T02:54:56.294Z,20.99
2022-09-16T02:57:24.846Z,21.15
2022-09-16T02:59:52.960Z,21.32
2022-09-16T03:02:21.545Z,21.24
2022-09-16T03:04:49.465Z,21.17
2022-09-16T03:07:19.070Z,21.17
2022-09-16T03:09:49.321Z,21.14
2022-09-16T03:12:26.408Z,21.16
2022-09-16T03:15:13.885Z,21.19
2022-09-16T03:17:59.459Z,21.11
2022-09-16T03:20:45.445Z,20.67
2022-09-16T03:23:26.284Z,20.82
2022-09-16T03:26:28.993Z,20.98
2022-09-16T03:29:05.359Z,20.95
2022-09-16T03:31:44.805Z,20.90
2022-09-16T03:34:34.564Z,20.85
2022-09-16T03:37:09.244Z,20.88
2022-09-16T03:39:38.499Z,20.60
2022-09-16T03:42:11.281Z,20.90
2022-09-16T03:44:41.153Z,20.90
2022-09-16T03:47:08.617Z,20.91
2022-09-16T03:49:35.874Z,20.83
2022-09-16T03:52:05.739Z,20.60
2022-09-16T03:54:34.059Z,20.64
2022-09-16T03:57:02.594Z,20.75
2022-09-16T03:59:30.554Z,20.60
2022-09-16T04:01:58.579Z,20.65
2022-09-16T04:04:26.738Z,20.74
2022-09-16T04:06:55.049Z,20.61
2022-09-16T04:09:23.642Z,20.70
2022-09-16T04:11:52.022Z,20.56
2022-09-16T04:14:19.215Z,20.48
2022-09-16T04:16:46.157Z,20.73
2022-09-16T04:19:14.712Z,20.36
2022-09-16T04:21:43.102Z,20.40
2022-09-16T04:24:13.393Z,20.53
2022-09-16T04:26:44.954Z,20.72
2022-09-16T04:29:13.667Z,20.69
2022-09-16T04:31:40.782Z,20.45
2022-09-16T04:34:07.743Z,20.55
2022-09-16T04:36:35.893Z,20.68
2022-09-16T04:39:03.821Z,20.72
2022-09-16T04:41:31.536Z,20.69
2022-09-16T04:44:00.178Z,20.66
2022-09-16T04:46:29.058Z,20.65
2022-09-16T04:48:57.150Z,20.69
2022-09-16T04:51:27.471Z,20.78
2022-09-16T04:53:57.089Z,20.75
2022-09-16T04:56:27.309Z,20.80
2022-09-16T04:58:58.784Z,20.74
2022-09-16T05:01:29.167Z,20.70
2022-09-16T05:04:00.754Z,20.90
2022-09-16T05:06:33.639Z,20.96
2022-09-16T05:09:02.842Z,21.00
2022-09-16T05:11:36.902Z,21.02
2022-09-16T05:14:08.456Z,21.03
2022-09-16T05:16:36.118Z,20.93
2022-09-16T05:19:05.160Z,20.87
2022-09-16T05:21:35.819Z,21.04
2022-09-16T05:24:06.182Z,21.18
2022-09-16T05:26:35.970Z,21.14
2022-09-16T05:29:06.471Z,21.33
2022-09-16T05:31:37.482Z,21.38
2022-09-16T05:34:22.125Z,21.43
2022-09-16T05:36:51.694Z,21.20
2022-09-16T05:39:24.215Z,21.53
2022-09-16T05:41:56.854Z,21.54
2022-09-16T05:44:25.799Z,21.50
2022-09-16T05:46:53.814Z,21.38
2022-09-16T05:49:21.702Z,21.59
2022-09-16T05:51:49.874Z,21.83
2022-09-16T05:54:19.377Z,21.31
2022-09-16T05:56:47.923Z,21.75
2022-09-16T05:59:17.046Z,21.97
2022-09-16T06:01:45.502Z,22.03
2022-09-16T06:04:15.116Z,22.06
2022-09-16T06:06:45.244Z,21.98
2022-09-16T06:09:16.938Z,22.21
2022-09-16T06:11:49.412Z,22.16
2022-09-16T06:14:19.065Z,22.13
2022-09-16T06:16:46.885Z,22.13
2022-09-16T06:19:17.993Z,22.07
2022-09-16T06:21:46.377Z,22.22
2022-09-16T06:24:15.824Z,22.47
2022-09-16T06:26:44.608Z,22.36
2022-09-16T06:29:13.148Z,22.31
2022-09-16T06:31:41.996Z,22.37
2022-09-16T06:34:15.746Z,22.48
2022-09-16T06:36:45.403Z,22.47
2022-09-16T06:39:14.885Z,22.66
2022-09-16T06:41:42.385Z,22.59
2022-09-16T06:44:10.159Z,22.59
2022-09-16T06:46:37.236Z,22.79
2022-09-16T06:49:06.389Z,22.68
2022-09-16T06:51:35.310Z,22.77
2022-09-16T06:54:05.865Z,22.99
2022-09-16T06:56:39.325Z,23.08
2022-09-16T06:59:08.254Z,22.92
2022-09-16T07:01:36.539Z,23.00
2022-09-16T07:04:07.567Z,23.18
2022-09-16T07:09:23.431Z,23.26
2022-09-16T07:11:50.620Z,23.13
2022-09-16T07:14:18.730Z,22.97
2022-09-16T07:16:45.871Z,23.26
2022-09-16T07:19:14.138Z,23.47
2022-09-16T07:21:41.836Z,23.64
2022-09-16T07:24:12.978Z,23.71
2022-09-16T07:26:41.738Z,23.68
2022-09-16T07:29:16.095Z,23.67
2022-09-16T07:31:43.829Z,23.75
2022-09-16T07:34:12.045Z,23.82
2022-09-16T07:36:48.054Z,23.77
2022-09-16T07:39:17.177Z,23.87
2022-09-16T07:41:46.514Z,23.81
2022-09-16T07:44:16.443Z,23.61
2022-09-16T07:46:44.083Z,23.80
2022-09-16T07:49:14.386Z,24.04
2022-09-16T07:51:42.182Z,24.20
2022-09-16T07:54:12.633Z,24.14
2022-09-16T07:56:41.460Z,23.99
2022-09-16T07:59:15.983Z,23.97
2022-09-16T08:01:49.268Z,23.85
2022-09-16T08:04:18.592Z,24.34
2022-09-16T08:06:46.563Z,24.06
2022-09-16T08:09:37.412Z,24.27
2022-09-16T08:12:06.001Z,24.24
2022-09-16T08:14:34.947Z,24.47
2022-09-16T08:17:03.476Z,24.53
2022-09-16T08:19:31.711Z,24.37
2022-09-16T08:21:58.804Z,24.64
2022-09-16T08:24:27.064Z,24.36
2022-09-16T08:29:23.250Z,24.70
2022-09-16T08:31:50.326Z,24.64
2022-09-16T08:34:17.938Z,24.90
2022-09-16T08:36:45.839Z,25.13
2022-09-16T08:39:15.733Z,25.17
2022-09-16T08:41:55.335Z,25.23
2022-09-16T08:45:09.401Z,25.32
2022-09-16T08:47:49.572Z,25.39
2022-09-16T08:50:22.768Z,25.43
2022-09-16T08:52:54.162Z,25.57
2022-09-16T08:55:33.027Z,25.43
2022-09-16T08:58:12.068Z,25.37
2022-09-16T09:00:42.576Z,25.51
2022-09-16T09:03:30.823Z,25.42
2022-09-16T09:05:59.726Z,25.46
2022-09-16T09:09:02.348Z,25.76
2022-09-16T09:11:52.508Z,25.66
2022-09-16T09:14:46.546Z,25.73
2022-09-16T09:17:47.973Z,25.59
2022-09-16T09:20:37.122Z,25.63
2022-09-16T09:23:10.577Z,25.74
2022-09-16T09:25:58.117Z,25.81
2022-09-16T09:28:31.415Z,25.92
2022-09-16T09:31:15.575Z,25.77
2022-09-16T09:34:06.557Z,26.09
2022-09-16T09:36:44.803Z,26.15
2022-09-16T09:39:49.637Z,26.24
2022-09-16T09:42:43.714Z,26.20
2022-09-16T09:45:24.360Z,26.27
2022-09-16T09:47:59.835Z,26.47
2022-09-16T09:50:33.995Z,26.50
2022-09-16T09:53:31.237Z,26.44
2022-09-16T09:56:08.890Z,26.64
2022-09-16T09:58:44.130Z,26.49
2022-09-16T10:01:11.934Z,26.63
2022-09-16T10:03:40.399Z,26.60
2022-09-16T10:06:11.207Z,26.40
2022-09-16T10:08:52.175Z,26.77
2022-09-16T10:11:26.252Z,26.74
2022-09-16T10:13:59.279Z,26.60
2022-09-16T10:16:46.709Z,26.78
2022-09-16T10:19:21.342Z,26.73
2022-09-16T10:22:19.316Z,26.71
2022-09-16T10:24:55.027Z,26.58
2022-09-16T10:27:28.632Z,26.55
2022-09-16T10:30:08.900Z,26.71
2022-09-16T10:32:46.679Z,26.66
2022-09-16T10:35:43.750Z,26.68
2022-09-16T10:38:23.129Z,26.78
2022-09-16T10:41:19.163Z,26.81
2022-09-16T10:44:17.175Z,26.84
2022-09-16T10:47:00.647Z,26.94
2022-09-16T10:49:53.933Z,26.83
2022-09-16T10:52:43.983Z,26.76
2022-09-16T10:55:20.650Z,26.71
2022-09-16T10:57:48.990Z,26.66
2022-09-16T11:00:18.848Z,26.72
2022-09-16T11:02:46.555Z,26.76
2022-09-16T11:05:31.384Z,26.77
2022-09-16T11:08:30.591Z,26.87
2022-09-16T11:11:37.579Z,26.79
2022-09-16T11:14:07.964Z,26.94
2022-09-16T11:16:46.308Z,26.92
2022-09-16T11:19:42.108Z,27.10
2022-09-16T11:22:37.787Z,27.21
2022-09-16T11:25:32.151Z,27.19
2022-09-16T11:28:24.179Z,27.42
2022-09-16T11:30:59.723Z,27.46
2022-09-16T11:33:47.439Z,27.36
2022-09-16T11:36:32.560Z,27.43
2022-09-16T11:39:11.642Z,27.44
2022-09-16T11:41:59.053Z,27.41
2022-09-16T11:44:26.239Z,27.32
2022-09-16T11:47:06.103Z,27.33
2022-09-16T11:49:58.336Z,27.16
2022-09-16T11:52:51.208Z,27.21
2022-09-16T11:55:52.901Z,27.27
2022-09-16T11:58:45.854Z,27.22
2022-09-16T12:01:32.749Z,27.44
2022-09-16T12:04:23.739Z,27.56
2022-09-16T12:07:19.402Z,27.67
2022-09-16T12:10:00.214Z,27.63
2022-09-16T12:12:34.261Z,27.45
2022-09-16T12:15:21.639Z,27.40
2022-09-16T12:17:57.903Z,27.34
2022-09-16T12:20:31.833Z,27.17
2022-09-16T12:23:12.708Z,27.36
2022-09-16T12:25:57.932Z,27.20
2022-09-16T12:28:51.727Z,27.52
2022-09-16T12:31:45.560Z,27.35
2022-09-16T12:34:37.396Z,27.42
2022-09-16T12:37:25.305Z,27.58
2022-09-16T12:39:53.177Z,27.58
2022-09-16T12:42:45.914Z,27.75
2022-09-16T12:45:36.012Z,27.86
2022-09-16T12:48:36.165Z,27.76
2022-09-16T12:51:31.450Z,27.69
2022-09-16T12:54:17.640Z,27.81
2022-09-16T12:56:59.602Z,27.71
2022-09-16T12:59:59.596Z,27.64
2022-09-16T13:02:37.459Z,27.55
2022-09-16T13:05:36.996Z,27.68
2022-09-16T13:08:17.040Z,27.50
2022-09-16T13:10:57.719Z,27.37
2022-09-16T13:13:43.454Z,27.63
2022-09-16T13:16:11.813Z,27.16
2022-09-16T13:18:42.812Z,27.54
2022-09-16T13:21:45.174Z,27.84
2022-09-16T13:24:15.768Z,27.77
2022-09-16T13:26:45.875Z,27.63
2022-09-16T13:29:40.607Z,27.81
2022-09-16T13:32:45.938Z,27.57
2022-09-16T13:35:23.436Z,27.76
2022-09-16T13:37:58.063Z,27.86
2022-09-16T13:40:29.285Z,27.64
2022-09-16T13:43:13.243Z,27.71
2022-09-16T13:45:43.054Z,27.55
2022-09-16T13:48:20.079Z,27.48
2022-09-16T13:50:53.641Z,27.72
2022-09-16T13:53:33.226Z,27.84
2022-09-16T13:56:31.553Z,27.87
2022-09-16T13:59:21.105Z,28.02
2022-09-16T14:02:00.322Z,27.95
2022-09-16T14:04:58.014Z,28.12
2022-09-16T14:07:53.088Z,28.19
2022-09-16T14:11:04.903Z,27.94
2022-09-16T14:13:41.989Z,28.23
2022-09-16T14:16:24.376Z,28.39
2022-09-16T14:19:01.738Z,28.29
2022-09-16T14:21:29.404Z,28.31
2022-09-16T14:24:07.610Z,28.36
2022-09-16T14:26:35.422Z,28.11
2022-09-16T14:29:04.772Z,28.14
2022-09-16T14:31:34.214Z,28.06
2022-09-16T14:34:07.634Z,27.95
2022-09-16T14:36:39.690Z,27.83
2022-09-16T14:39:07.236Z,27.78
2022-09-16T14:41:41.753Z,27.72
2022-09-16T14:44:18.855Z,27.70
2022-09-16T14:47:00.311Z,27.69
2022-09-16T14:49:37.912Z,27.36
2022-09-16T14:52:16.346Z,27.58
2022-09-16T14:54:46.568Z,27.44
2022-09-16T14:57:23.087Z,27.33
2022-09-16T14:59:53.613Z,27.01
2022-09-16T15:02:24.093Z,27.07
2022-09-16T15:04:57.736Z,27.03
2022-09-16T15:07:50.607Z,26.89
2022-09-16T15:10:30.271Z,26.85
2022-09-16T15:13:14.605Z,26.57
2022-09-16T15:15:56.327Z,26.79
2022-09-16T15:18:33.119Z,26.55
2022-09-16T15:21:08.816Z,26.62
2022-09-16T15:23:40.350Z,26.72
2022-09-16T15:26:31.700Z,26.67
2022-09-16T15:29:02.855Z,26.63
2022-09-16T15:31:40.739Z,26.68
2022-09-16T15:34:18.951Z,26.52
2022-09-16T15:36:47.743Z,26.53
2022-09-16T15:39:30.366Z,26.51
2022-09-16T15:42:16.548Z,26.47
2022-09-16T15:44:48.756Z,26.41
2022-09-16T15:47:26.269Z,26.41
2022-09-16T15:50:01.276Z,26.41
2022-09-16T15:52:29.330Z,26.09
2022-09-16T15:55:02.501Z,26.09
2022-09-16T15:57:42.575Z,25.98
2022-09-16T16:00:14.681Z,25.91
2022-09-16T16:03:02.039Z,25.66
2022-09-16T16:05:32.519Z,25.62
2022-09-16T16:08:06.148Z,25.37
2022-09-16T16:10:37.625Z,25.31
2022-09-16T16:13:04.981Z,25.16
2022-09-16T16:15:37.601Z,25.07
2022-09-16T16:18:10.900Z,25.15
2022-09-16T16:20:39.133Z,25.07
2022-09-16T16:23:07.317Z,24.70
2022-09-16T16:25:35.477Z,24.92
2022-09-16T16:28:02.848Z,24.66
2022-09-16T16:30:31.908Z,24.23
2022-09-16T16:32:58.957Z,24.53
2022-09-16T16:35:26.165Z,23.87
2022-09-16T16:37:54.089Z,24.35
2022-09-16T16:40:21.993Z,24.27
2022-09-16T16:42:50.082Z,24.07
2022-09-16T16:45:17.250Z,23.98
2022-09-16T16:47:44.707Z,24.09
2022-09-16T16:50:12.292Z,24.06
2022-09-16T16:52:39.964Z,23.98
2022-09-16T16:55:07.992Z,24.00
2022-09-16T16:57:35.475Z,23.86
2022-09-16T17:00:07.148Z,23.77
2022-09-16T17:02:35.611Z,23.78
2022-09-16T17:05:03.588Z,23.86
2022-09-16T17:07:32.090Z,23.48
2022-09-16T17:10:01.665Z,23.58
2022-09-16T17:12:29.900Z,23.69
2022-09-16T17:14:57.146Z,23.77
2022-09-16T17:17:27.751Z,23.82
2022-09-16T17:19:58.331Z,23.35
2022-09-16T17:22:25.634Z,23.82
2022-09-16T17:24:55.893Z,23.91
2022-09-16T17:27:25.223Z,23.45
2022-09-16T17:29:53.112Z,23.56
2022-09-16T17:32:20.869Z,23.71
2022-09-16T17:34:48.300Z,23.85
2022-09-16T17:37:20.089Z,23.81
2022-09-16T17:39:48.720Z,23.69
2022-09-16T17:42:16.190Z,23.71
2022-09-16T17:44:43.600Z,23.09
2022-09-16T17:47:11.134Z,23.47
2022-09-16T17:49:38.997Z,23.68
2022-09-16T17:52:06.034Z,23.60
2022-09-16T17:54:33.962Z,23.47
2022-09-16T17:57:01.412Z,23.39
2022-09-16T17:59:29.751Z,23.47
2022-09-16T18:01:57.262Z,23.39
2022-09-16T18:04:25.497Z,23.13
2022-09-16T18:06:52.847Z,23.35
2022-09-16T18:09:20.930Z,23.44
2022-09-16T18:11:48.454Z,23.25
2022-09-16T18:14:20.149Z,23.30
2022-09-16T18:16:50.187Z,23.03
2022-09-16T18:19:17.146Z,23.04
2022-09-16T18:21:44.318Z,23.06
2022-09-16T18:24:13.301Z,23.06
2022-09-16T18:26:42.334Z,22.82
2022-09-16T18:29:12.290Z,22.81
2022-09-16T18:31:42.214Z,23.02
2022-09-16T18:34:12.027Z,22.98
2022-09-16T18:36:40.724Z,22.81
2022-09-16T18:39:13.837Z,22.54
2022-09-16T18:41:43.286Z,22.61
2022-09-16T18:44:16.516Z,22.64
2022-09-16T18:46:44.853Z,22.55
2022-09-16T18:49:14.820Z,22.52
2022-09-16T18:51:50.557Z,22.53
2022-09-16T18:54:28.300Z,22.40
2022-09-16T18:56:59.772Z,22.23
2022-09-16T18:59:30.503Z,22.29
2022-09-16T19:02:02.864Z,22.43
2022-09-16T19:04:33.259Z,22.29
2022-09-16T19:07:08.422Z,22.51
2022-09-16T19:09:38.524Z,22.19
2022-09-16T19:12:09.741Z,22.49
2022-09-16T19:14:38.150Z,22.50
2022-09-16T19:17:06.038Z,22.42
2022-09-16T19:19:33.842Z,22.53
2022-09-16T19:22:05.768Z,22.52
2022-09-16T19:24:34.589Z,22.37
2022-09-16T19:27:01.776Z,22.44
2022-09-16T19:29:29.920Z,22.08
2022-09-16T19:31:57.443Z,22.29
2022-09-16T19:34:25.455Z,22.26
2022-09-16T19:36:52.986Z,22.24
2022-09-16T19:39:21.528Z,22.12
2022-09-16T19:41:49.184Z,22.11
2022-09-16T19:44:18.436Z,22.24
2022-09-16T19:46:49.418Z,22.14
2022-09-16T19:49:20.372Z,22.41
2022-09-16T19:51:49.319Z,22.22
2022-09-16T19:54:17.383Z,22.16
2022-09-16T19:56:50.184Z,22.10
2022-09-16T19:59:19.637Z,22.10
2022-09-16T20:01:48.251Z,22.05
2022-09-16T20:04:19.838Z,21.73
2022-09-16T20:06:48.923Z,22.18
2022-09-16T20:09:17.222Z,22.22
2022-09-16T20:11:46.561Z,22.08
2022-09-16T20:14:17.976Z,21.91
2022-09-16T20:16:45.773Z,22.00
2022-09-16T20:19:15.360Z,21.82
2022-09-16T20:21:43.472Z,21.80
2022-09-16T20:24:16.363Z,21.54
2022-09-16T20:26:44.302Z,21.90
2022-09-16T20:29:11.582Z,21.91
2022-09-16T20:31:39.857Z,21.82
2022-09-16T20:34:07.167Z,21.90
2022-09-16T20:36:38.963Z,21.88
2022-09-16T20:39:09.178Z,21.89
2022-09-16T20:41:38.557Z,21.83
2022-09-16T20:44:06.245Z,21.84
2022-09-16T20:46:35.961Z,21.48
2022-09-16T20:49:05.509Z,21.97
2022-09-16T20:51:34.681Z,21.91
2022-09-16T20:54:09.653Z,21.86
2022-09-16T20:56:39.833Z,21.46
2022-09-16T20:59:09.519Z,21.95
2022-09-16T21:01:38.634Z,21.92
2022-09-16T21:04:08.335Z,21.97
2022-09-16T21:06:36.647Z,21.84
2022-09-16T21:09:06.881Z,21.72
2022-09-16T21:11:36.711Z,21.88
2022-09-16T21:14:06.652Z,21.90
2022-09-16T21:16:36.437Z,21.70
2022-09-16T21:19:05.686Z,21.71
2022-09-16T21:21:32.692Z,21.65
2022-09-16T21:24:01.481Z,21.47
2022-09-16T21:26:31.908Z,21.12
2022-09-16T21:29:05.900Z,21.25
2022-09-16T21:31:34.860Z,21.50
2022-09-16T21:34:03.273Z,21.37
2022-09-16T21:36:31.986Z,21.47
2022-09-16T21:38:59.783Z,21.43
2022-09-16T21:41:28.057Z,21.53
2022-09-16T21:43:57.901Z,21.50
2022-09-16T21:46:28.420Z,21.23
2022-09-16T21:48:58.430Z,21.61
2022-09-16T21:51:26.866Z,21.54
2022-09-16T21:53:55.252Z,21.21
2022-09-16T21:56:24.377Z,21.61
2022-09-16T21:58:55.512Z,21.43
2022-09-16T22:01:26.219Z,21.60
2022-09-16T22:04:01.802Z,21.53
2022-09-16T22:06:30.183Z,21.57
2022-09-16T22:09:01.015Z,21.41
2022-09-16T22:11:32.066Z,21.59
2022-09-16T22:14:01.536Z,21.40
2022-09-16T22:16:30.744Z,21.59
2022-09-16T22:19:02.505Z,21.62
2022-09-16T22:21:32.826Z,21.23
2022-09-16T22:24:02.381Z,21.30
2022-09-16T22:26:30.946Z,21.21
2022-09-16T22:28:59.858Z,21.39
2022-09-16T22:31:32.128Z,21.33
2022-09-16T22:34:02.407Z,21.35
2022-09-16T22:36:33.722Z,21.16
2022-09-16T22:39:05.938Z,21.00
2022-09-16T22:41:34.161Z,21.28
2022-09-16T22:44:01.223Z,21.09
2022-09-16T22:46:34.678Z,21.00
2022-09-16T22:49:01.818Z,21.03
2022-09-16T22:51:29.534Z,21.12
2022-09-16T22:53:57.393Z,21.00
2022-09-16T22:56:28.509Z,21.15
2022-09-16T22:58:58.426Z,20.97
2022-09-16T23:01:28.977Z,21.19
2022-09-16T23:03:59.783Z,21.18
2022-09-16T23:06:29.979Z,21.22
2022-09-16T23:08:58.436Z,21.25
2022-09-16T23:11:29.249Z,21.20
2022-09-16T23:13:58.260Z,21.28
2022-09-16T23:16:39.207Z,21.25
2022-09-16T23:19:10.370Z,21.02
2022-09-16T23:21:39.432Z,21.14
2022-09-16T23:24:08.670Z,21.19
2022-09-16T23:26:38.528Z,21.24
2022-09-16T23:29:08.319Z,21.13
2022-09-16T23:31:43.347Z,21.07
2022-09-16T23:34:13.043Z,21.02
2022-09-16T23:36:43.004Z,20.81
2022-09-16T23:39:13.497Z,20.89
2022-09-16T23:41:42.629Z,21.07
2022-09-16T23:44:13.533Z,21.01
2022-09-16T23:46:41.443Z,21.03
2022-09-16T23:49:10.160Z,20.95
2022-09-16T23:51:38.198Z,20.95
2022-09-16T23:54:05.791Z,20.75
2022-09-16T23:56:34.083Z,20.90
2022-09-16T23:59:01.444Z,20.86
